sensor_id;sensor_type;location;lat;lon;timestamp;P1;durP1;ratioP1;P2;durP2;ratioP2
30571;SDS011;17348;50.948;10.696;2023-03-12T00:02:14;11.10;;;3.60;;
30571;SDS011;17348;50.948;10.696;2023-03-12T00:05:17;8.53;;;3.70;;
30571;SDS011;17348;50.948;10.696;2023-03-12T00:08:19;13.20;;;3.10;;
30571;SDS011;17348;50.948;10.696;2023-03-12T00:11:21;7.77;;;2.60;;
30571;SDS011;17348;50.948;10.696;2023-03-12T00:14:24;15.37;;;2.60;;
30571;SDS011;17348;50.948;10.696;2023-03-12T00:17:28;8.20;;;2.60;;
30571;SDS011;17348;50.948;10.696;2023-03-12T00:20:31;8.97;;;2.30;;
30571;SDS011;17348;50.948;10.696;2023-03-12T00:23:33;5.73;;;2.13;;
30571;SDS011;17348;50.948;10.696;2023-03-12T00:26:36;6.40;;;2.53;;
30571;SDS011;17348;50.948;10.696;2023-03-12T00:29:38;12.37;;;4.30;;
30571;SDS011;17348;50.948;10.696;2023-03-12T00:32:42;25.67;;;6.20;;
30571;SDS011;17348;50.948;10.696;2023-03-12T00:35:44;22.33;;;4.13;;
30571;SDS011;17348;50.948;10.696;2023-03-12T00:38:46;13.93;;;4.43;;
30571;SDS011;17348;50.948;10.696;2023-03-12T00:41:49;9.83;;;4.07;;
30571;SDS011;17348;50.948;10.696;2023-03-12T00:44:51;9.70;;;3.43;;
30571;SDS011;17348;50.948;10.696;2023-03-12T00:47:55;8.63;;;2.27;;
30571;SDS011;17348;50.948;10.696;2023-03-12T00:50:57;8.57;;;2.30;;
30571;SDS011;17348;50.948;10.696;2023-03-12T00:53:59;5.73;;;2.40;;
30571;SDS011;17348;50.948;10.696;2023-03-12T00:57:02;6.07;;;1.80;;
30571;SDS011;17348;50.948;10.696;2023-03-12T01:00:05;3.37;;;1.77;;
30571;SDS011;17348;50.948;10.696;2023-03-12T01:03:11;3.77;;;1.90;;
30571;SDS011;17348;50.948;10.696;2023-03-12T01:06:14;7.90;;;2.07;;
30571;SDS011;17348;50.948;10.696;2023-03-12T01:09:17;5.53;;;2.00;;
30571;SDS011;17348;50.948;10.696;2023-03-12T01:12:19;10.07;;;2.20;;
30571;SDS011;17348;50.948;10.696;2023-03-12T01:15:22;5.50;;;1.73;;
30571;SDS011;17348;50.948;10.696;2023-03-12T01:18:25;4.57;;;1.57;;
30571;SDS011;17348;50.948;10.696;2023-03-12T01:21:28;4.27;;;1.80;;
30571;SDS011;17348;50.948;10.696;2023-03-12T01:24:31;6.77;;;1.90;;
30571;SDS011;17348;50.948;10.696;2023-03-12T01:27:33;7.23;;;2.10;;
30571;SDS011;17348;50.948;10.696;2023-03-12T01:30:36;5.50;;;1.80;;
30571;SDS011;17348;50.948;10.696;2023-03-12T01:33:39;7.00;;;1.50;;
30571;SDS011;17348;50.948;10.696;2023-03-12T01:36:42;4.70;;;1.93;;
30571;SDS011;17348;50.948;10.696;2023-03-12T01:39:47;4.00;;;1.77;;
30571;SDS011;17348;50.948;10.696;2023-03-12T01:42:52;2.40;;;1.40;;
30571;SDS011;17348;50.948;10.696;2023-03-12T01:46:03;6.17;;;2.47;;
30571;SDS011;17348;50.948;10.696;2023-03-12T01:49:10;4.30;;;1.47;;
30571;SDS011;17348;50.948;10.696;2023-03-12T01:52:15;4.00;;;1.70;;
30571;SDS011;17348;50.948;10.696;2023-03-12T01:55:19;17.67;;;1.90;;
30571;SDS011;17348;50.948;10.696;2023-03-12T01:58:21;3.90;;;1.67;;
30571;SDS011;17348;50.948;10.696;2023-03-12T02:01:23;3.93;;;1.90;;
30571;SDS011;17348;50.948;10.696;2023-03-12T02:04:27;7.37;;;1.43;;
30571;SDS011;17348;50.948;10.696;2023-03-12T02:07:32;4.77;;;1.63;;
30571;SDS011;17348;50.948;10.696;2023-03-12T02:10:35;7.73;;;1.70;;
30571;SDS011;17348;50.948;10.696;2023-03-12T02:13:37;4.90;;;1.97;;
30571;SDS011;17348;50.948;10.696;2023-03-12T02:16:40;5.77;;;1.60;;
30571;SDS011;17348;50.948;10.696;2023-03-12T02:19:44;3.10;;;1.17;;
30571;SDS011;17348;50.948;10.696;2023-03-12T02:22:54;7.13;;;1.73;;
30571;SDS011;17348;50.948;10.696;2023-03-12T02:26:04;4.57;;;1.90;;
30571;SDS011;17348;50.948;10.696;2023-03-12T02:29:08;4.93;;;1.90;;
30571;SDS011;17348;50.948;10.696;2023-03-12T02:32:14;5.03;;;2.23;;
30571;SDS011;17348;50.948;10.696;2023-03-12T02:35:21;2.58;;;1.48;;
30571;SDS011;17348;50.948;10.696;2023-03-12T02:41:48;4.13;;;1.57;;
30571;SDS011;17348;50.948;10.696;2023-03-12T02:44:53;9.73;;;3.17;;
30571;SDS011;17348;50.948;10.696;2023-03-12T02:47:55;7.33;;;2.03;;
30571;SDS011;17348;50.948;10.696;2023-03-12T02:50:58;5.50;;;1.63;;
30571;SDS011;17348;50.948;10.696;2023-03-12T02:54:00;5.03;;;1.90;;
30571;SDS011;17348;50.948;10.696;2023-03-12T02:57:04;5.97;;;1.93;;
30571;SDS011;17348;50.948;10.696;2023-03-12T03:00:07;6.53;;;2.27;;
30571;SDS011;17348;50.948;10.696;2023-03-12T03:03:11;3.70;;;1.17;;
30571;SDS011;17348;50.948;10.696;2023-03-12T03:06:14;4.53;;;1.93;;
30571;SDS011;17348;50.948;10.696;2023-03-12T03:09:17;6.43;;;2.00;;
30571;SDS011;17348;50.948;10.696;2023-03-12T03:12:22;3.63;;;2.33;;
30571;SDS011;17348;50.948;10.696;2023-03-12T03:15:25;4.20;;;1.80;;
30571;SDS011;17348;50.948;10.696;2023-03-12T03:18:28;7.83;;;2.07;;
30571;SDS011;17348;50.948;10.696;2023-03-12T03:21:31;4.13;;;1.90;;
30571;SDS011;17348;50.948;10.696;2023-03-12T03:24:34;2.67;;;1.23;;
30571;SDS011;17348;50.948;10.696;2023-03-12T03:27:38;4.37;;;1.93;;
30571;SDS011;17348;50.948;10.696;2023-03-12T03:30:40;4.63;;;1.70;;
30571;SDS011;17348;50.948;10.696;2023-03-12T03:33:43;6.00;;;2.13;;
30571;SDS011;17348;50.948;10.696;2023-03-12T03:36:45;3.37;;;1.23;;
30571;SDS011;17348;50.948;10.696;2023-03-12T03:39:48;6.57;;;2.93;;
30571;SDS011;17348;50.948;10.696;2023-03-12T03:42:51;3.00;;;1.63;;
30571;SDS011;17348;50.948;10.696;2023-03-12T03:45:56;5.73;;;1.77;;
30571;SDS011;17348;50.948;10.696;2023-03-12T03:48:59;3.83;;;1.70;;
30571;SDS011;17348;50.948;10.696;2023-03-12T03:52:02;7.17;;;1.80;;
30571;SDS011;17348;50.948;10.696;2023-03-12T03:55:06;13.60;;;2.23;;
30571;SDS011;17348;50.948;10.696;2023-03-12T03:58:10;6.17;;;1.60;;
30571;SDS011;17348;50.948;10.696;2023-03-12T04:01:12;2.47;;;1.47;;
30571;SDS011;17348;50.948;10.696;2023-03-12T04:04:15;8.80;;;1.73;;
30571;SDS011;17348;50.948;10.696;2023-03-12T04:07:17;4.30;;;1.70;;
30571;SDS011;17348;50.948;10.696;2023-03-12T04:10:21;6.30;;;1.97;;
30571;SDS011;17348;50.948;10.696;2023-03-12T04:13:26;7.73;;;2.30;;
30571;SDS011;17348;50.948;10.696;2023-03-12T04:16:28;5.27;;;1.93;;
30571;SDS011;17348;50.948;10.696;2023-03-12T04:19:30;6.40;;;1.70;;
30571;SDS011;17348;50.948;10.696;2023-03-12T04:22:33;3.87;;;1.40;;
30571;SDS011;17348;50.948;10.696;2023-03-12T04:25:35;6.97;;;1.87;;
30571;SDS011;17348;50.948;10.696;2023-03-12T04:28:39;11.47;;;2.37;;
30571;SDS011;17348;50.948;10.696;2023-03-12T04:31:41;3.30;;;1.83;;
30571;SDS011;17348;50.948;10.696;2023-03-12T04:34:44;3.40;;;1.67;;
30571;SDS011;17348;50.948;10.696;2023-03-12T04:37:46;2.73;;;1.60;;
30571;SDS011;17348;50.948;10.696;2023-03-12T04:40:55;4.80;;;1.70;;
30571;SDS011;17348;50.948;10.696;2023-03-12T04:44:00;4.70;;;1.43;;
30571;SDS011;17348;50.948;10.696;2023-03-12T04:47:02;5.27;;;1.90;;
30571;SDS011;17348;50.948;10.696;2023-03-12T04:50:05;3.53;;;1.70;;
30571;SDS011;17348;50.948;10.696;2023-03-12T04:53:08;4.17;;;1.87;;
30571;SDS011;17348;50.948;10.696;2023-03-12T04:56:11;10.27;;;1.73;;
30571;SDS011;17348;50.948;10.696;2023-03-12T04:59:14;4.67;;;2.13;;
30571;SDS011;17348;50.948;10.696;2023-03-12T05:02:18;3.90;;;1.47;;
30571;SDS011;17348;50.948;10.696;2023-03-12T05:05:20;3.33;;;1.50;;
30571;SDS011;17348;50.948;10.696;2023-03-12T05:08:22;5.57;;;1.53;;
30571;SDS011;17348;50.948;10.696;2023-03-12T05:11:25;10.07;;;1.80;;
30571;SDS011;17348;50.948;10.696;2023-03-12T05:14:29;2.73;;;1.77;;
30571;SDS011;17348;50.948;10.696;2023-03-12T05:17:31;8.57;;;1.60;;
30571;SDS011;17348;50.948;10.696;2023-03-12T05:20:33;4.00;;;1.63;;
30571;SDS011;17348;50.948;10.696;2023-03-12T05:23:36;10.50;;;2.27;;
30571;SDS011;17348;50.948;10.696;2023-03-12T05:26:42;9.50;;;2.27;;
30571;SDS011;17348;50.948;10.696;2023-03-12T05:29:45;8.77;;;1.90;;
30571;SDS011;17348;50.948;10.696;2023-03-12T05:32:47;2.30;;;1.50;;
30571;SDS011;17348;50.948;10.696;2023-03-12T05:35:50;6.37;;;1.97;;
30571;SDS011;17348;50.948;10.696;2023-03-12T05:38:52;8.43;;;1.53;;
30571;SDS011;17348;50.948;10.696;2023-03-12T05:41:54;4.63;;;1.67;;
30571;SDS011;17348;50.948;10.696;2023-03-12T05:44:58;1.73;;;1.23;;
30571;SDS011;17348;50.948;10.696;2023-03-12T05:48:00;4.83;;;1.60;;
30571;SDS011;17348;50.948;10.696;2023-03-12T05:51:03;11.80;;;1.20;;
30571;SDS011;17348;50.948;10.696;2023-03-12T05:54:08;7.77;;;1.10;;
30571;SDS011;17348;50.948;10.696;2023-03-12T05:57:10;8.77;;;1.50;;
30571;SDS011;17348;50.948;10.696;2023-03-12T06:00:15;5.43;;;1.20;;
30571;SDS011;17348;50.948;10.696;2023-03-12T06:03:18;5.10;;;1.30;;
30571;SDS011;17348;50.948;10.696;2023-03-12T06:06:20;3.37;;;1.50;;
30571;SDS011;17348;50.948;10.696;2023-03-12T06:09:23;6.90;;;1.40;;
30571;SDS011;17348;50.948;10.696;2023-03-12T06:12:25;7.73;;;1.53;;
30571;SDS011;17348;50.948;10.696;2023-03-12T06:15:29;7.57;;;1.77;;
30571;SDS011;17348;50.948;10.696;2023-03-12T06:18:31;3.77;;;1.77;;
30571;SDS011;17348;50.948;10.696;2023-03-12T06:21:34;3.57;;;1.20;;
30571;SDS011;17348;50.948;10.696;2023-03-12T06:24:36;8.17;;;1.67;;
30571;SDS011;17348;50.948;10.696;2023-03-12T06:27:42;8.83;;;1.40;;
30571;SDS011;17348;50.948;10.696;2023-03-12T06:30:45;4.37;;;1.30;;
30571;SDS011;17348;50.948;10.696;2023-03-12T06:33:50;4.07;;;1.13;;
30571;SDS011;17348;50.948;10.696;2023-03-12T06:36:53;3.80;;;1.40;;
30571;SDS011;17348;50.948;10.696;2023-03-12T06:39:56;11.40;;;1.53;;
30571;SDS011;17348;50.948;10.696;2023-03-12T06:42:58;2.83;;;1.40;;
30571;SDS011;17348;50.948;10.696;2023-03-12T06:46:02;9.20;;;1.80;;
30571;SDS011;17348;50.948;10.696;2023-03-12T06:49:08;3.07;;;1.30;;
30571;SDS011;17348;50.948;10.696;2023-03-12T06:52:11;13.07;;;1.37;;
30571;SDS011;17348;50.948;10.696;2023-03-12T06:55:14;6.03;;;1.30;;
30571;SDS011;17348;50.948;10.696;2023-03-12T06:58:16;4.60;;;1.10;;
30571;SDS011;17348;50.948;10.696;2023-03-12T07:01:20;3.37;;;1.23;;
30571;SDS011;17348;50.948;10.696;2023-03-12T07:04:23;5.67;;;1.60;;
30571;SDS011;17348;50.948;10.696;2023-03-12T07:07:25;10.20;;;1.97;;
30571;SDS011;17348;50.948;10.696;2023-03-12T07:10:28;2.43;;;1.40;;
30571;SDS011;17348;50.948;10.696;2023-03-12T07:13:30;4.80;;;1.80;;
30571;SDS011;17348;50.948;10.696;2023-03-12T07:16:34;5.77;;;1.97;;
30571;SDS011;17348;50.948;10.696;2023-03-12T07:19:37;8.63;;;1.87;;
30571;SDS011;17348;50.948;10.696;2023-03-12T07:22:39;3.47;;;1.60;;
30571;SDS011;17348;50.948;10.696;2023-03-12T07:25:42;3.30;;;1.50;;
30571;SDS011;17348;50.948;10.696;2023-03-12T07:28:44;8.27;;;2.10;;
30571;SDS011;17348;50.948;10.696;2023-03-12T07:31:48;5.53;;;1.57;;
30571;SDS011;17348;50.948;10.696;2023-03-12T07:34:51;5.67;;;2.37;;
30571;SDS011;17348;50.948;10.696;2023-03-12T07:37:53;7.23;;;1.93;;
30571;SDS011;17348;50.948;10.696;2023-03-12T07:40:56;7.30;;;2.00;;
30571;SDS011;17348;50.948;10.696;2023-03-12T07:43:59;8.10;;;1.80;;
30571;SDS011;17348;50.948;10.696;2023-03-12T07:47:03;6.23;;;2.30;;
30571;SDS011;17348;50.948;10.696;2023-03-12T07:50:06;9.20;;;2.57;;
30571;SDS011;17348;50.948;10.696;2023-03-12T07:53:09;6.33;;;1.70;;
30571;SDS011;17348;50.948;10.696;2023-03-12T07:56:12;3.47;;;1.67;;
30571;SDS011;17348;50.948;10.696;2023-03-12T07:59:14;4.45;;;1.77;;
30571;SDS011;17348;50.948;10.696;2023-03-12T08:02:20;11.43;;;2.28;;
30571;SDS011;17348;50.948;10.696;2023-03-12T08:05:22;11.50;;;1.80;;
30571;SDS011;17348;50.948;10.696;2023-03-12T08:08:26;5.13;;;1.48;;
30571;SDS011;17348;50.948;10.696;2023-03-12T08:11:30;8.77;;;1.40;;
30571;SDS011;17348;50.948;10.696;2023-03-12T08:14:34;5.00;;;1.58;;
30571;SDS011;17348;50.948;10.696;2023-03-12T08:17:38;6.93;;;1.15;;
30571;SDS011;17348;50.948;10.696;2023-03-12T08:20:40;1.60;;;1.00;;
30571;SDS011;17348;50.948;10.696;2023-03-12T08:23:43;5.25;;;1.17;;
30571;SDS011;17348;50.948;10.696;2023-03-12T08:26:45;6.68;;;1.30;;
30571;SDS011;17348;50.948;10.696;2023-03-12T08:29:48;5.88;;;1.42;;
30571;SDS011;17348;50.948;10.696;2023-03-12T08:32:52;3.63;;;1.30;;
30571;SDS011;17348;50.948;10.696;2023-03-12T08:35:54;7.53;;;1.30;;
30571;SDS011;17348;50.948;10.696;2023-03-12T08:38:56;7.37;;;1.50;;
30571;SDS011;17348;50.948;10.696;2023-03-12T08:41:59;3.13;;;1.20;;
30571;SDS011;17348;50.948;10.696;2023-03-12T08:45:02;4.63;;;1.57;;
30571;SDS011;17348;50.948;10.696;2023-03-12T08:48:06;5.67;;;1.10;;
30571;SDS011;17348;50.948;10.696;2023-03-12T08:51:09;4.70;;;1.53;;
30571;SDS011;17348;50.948;10.696;2023-03-12T08:54:11;5.80;;;1.60;;
30571;SDS011;17348;50.948;10.696;2023-03-12T08:57:14;12.80;;;1.83;;
30571;SDS011;17348;50.948;10.696;2023-03-12T09:00:17;6.77;;;2.33;;
30571;SDS011;17348;50.948;10.696;2023-03-12T09:03:21;4.30;;;1.80;;
30571;SDS011;17348;50.948;10.696;2023-03-12T09:06:24;4.07;;;1.50;;
30571;SDS011;17348;50.948;10.696;2023-03-12T09:09:27;6.73;;;2.13;;
30571;SDS011;17348;50.948;10.696;2023-03-12T09:12:29;8.03;;;1.80;;
30571;SDS011;17348;50.948;10.696;2023-03-12T09:15:32;5.20;;;1.50;;
30571;SDS011;17348;50.948;10.696;2023-03-12T09:18:36;11.70;;;1.90;;
30571;SDS011;17348;50.948;10.696;2023-03-12T09:21:38;6.77;;;1.90;;
30571;SDS011;17348;50.948;10.696;2023-03-12T09:24:41;3.87;;;1.43;;
30571;SDS011;17348;50.948;10.696;2023-03-12T09:27:43;12.07;;;2.17;;
30571;SDS011;17348;50.948;10.696;2023-03-12T09:30:48;9.20;;;1.53;;
30571;SDS011;17348;50.948;10.696;2023-03-12T09:33:52;4.93;;;1.70;;
30571;SDS011;17348;50.948;10.696;2023-03-12T09:36:55;5.37;;;2.10;;
30571;SDS011;17348;50.948;10.696;2023-03-12T09:39:57;4.07;;;1.50;;
30571;SDS011;17348;50.948;10.696;2023-03-12T09:43:01;4.73;;;1.70;;
30571;SDS011;17348;50.948;10.696;2023-03-12T09:46:07;4.57;;;2.00;;
30571;SDS011;17348;50.948;10.696;2023-03-12T09:49:21;4.63;;;1.80;;
30571;SDS011;17348;50.948;10.696;2023-03-12T09:52:31;8.27;;;2.00;;
30571;SDS011;17348;50.948;10.696;2023-03-12T09:55:36;5.87;;;1.83;;
30571;SDS011;17348;50.948;10.696;2023-03-12T09:58:40;8.90;;;2.00;;
30571;SDS011;17348;50.948;10.696;2023-03-12T10:01:48;2.63;;;1.30;;
30571;SDS011;17348;50.948;10.696;2023-03-12T10:04:54;5.73;;;1.37;;
30571;SDS011;17348;50.948;10.696;2023-03-12T10:08:04;8.03;;;1.70;;
30571;SDS011;17348;50.948;10.696;2023-03-12T10:11:13;5.90;;;1.30;;
30571;SDS011;17348;50.948;10.696;2023-03-12T10:14:27;9.65;;;2.47;;
30571;SDS011;17348;50.948;10.696;2023-03-12T10:17:42;3.87;;;1.67;;
30571;SDS011;17348;50.948;10.696;2023-03-12T10:20:54;5.77;;;1.30;;
30571;SDS011;17348;50.948;10.696;2023-03-12T10:24:10;6.43;;;2.23;;
30571;SDS011;17348;50.948;10.696;2023-03-12T10:27:23;4.57;;;1.63;;
30571;SDS011;17348;50.948;10.696;2023-03-12T10:30:28;5.27;;;1.80;;
30571;SDS011;17348;50.948;10.696;2023-03-12T10:33:37;3.53;;;1.57;;
30571;SDS011;17348;50.948;10.696;2023-03-12T10:36:46;9.17;;;2.13;;
30571;SDS011;17348;50.948;10.696;2023-03-12T10:39:49;12.97;;;2.07;;
30571;SDS011;17348;50.948;10.696;2023-03-12T10:42:53;8.77;;;2.40;;
30571;SDS011;17348;50.948;10.696;2023-03-12T10:45:56;11.40;;;2.40;;
30571;SDS011;17348;50.948;10.696;2023-03-12T10:49:24;7.90;;;2.00;;
30571;SDS011;17348;50.948;10.696;2023-03-12T10:52:33;14.00;;;2.23;;
30571;SDS011;17348;50.948;10.696;2023-03-12T10:55:35;10.63;;;2.47;;
30571;SDS011;17348;50.948;10.696;2023-03-12T10:58:38;5.60;;;2.27;;
30571;SDS011;17348;50.948;10.696;2023-03-12T11:01:42;14.03;;;3.20;;
30571;SDS011;17348;50.948;10.696;2023-03-12T11:04:50;6.07;;;2.57;;
30571;SDS011;17348;50.948;10.696;2023-03-12T11:07:55;8.40;;;2.23;;
30571;SDS011;17348;50.948;10.696;2023-03-12T11:11:00;10.63;;;2.70;;
30571;SDS011;17348;50.948;10.696;2023-03-12T11:14:07;6.97;;;2.37;;
30571;SDS011;17348;50.948;10.696;2023-03-12T11:17:20;5.78;;;2.72;;
30571;SDS011;17348;50.948;10.696;2023-03-12T11:20:24;8.73;;;2.57;;
30571;SDS011;17348;50.948;10.696;2023-03-12T11:23:29;10.80;;;2.90;;
30571;SDS011;17348;50.948;10.696;2023-03-12T11:26:33;9.10;;;3.83;;
30571;SDS011;17348;50.948;10.696;2023-03-12T11:29:41;9.27;;;2.70;;
30571;SDS011;17348;50.948;10.696;2023-03-12T11:32:48;6.10;;;2.20;;
30571;SDS011;17348;50.948;10.696;2023-03-12T11:35:55;6.30;;;2.57;;
30571;SDS011;17348;50.948;10.696;2023-03-12T11:39:12;12.53;;;2.60;;
30571;SDS011;17348;50.948;10.696;2023-03-12T11:42:32;3.77;;;2.03;;
30571;SDS011;17348;50.948;10.696;2023-03-12T11:45:45;6.03;;;2.00;;
30571;SDS011;17348;50.948;10.696;2023-03-12T11:49:01;8.60;;;2.93;;
30571;SDS011;17348;50.948;10.696;2023-03-12T11:52:13;4.97;;;2.43;;
30571;SDS011;17348;50.948;10.696;2023-03-12T11:55:31;7.57;;;2.20;;
30571;SDS011;17348;50.948;10.696;2023-03-12T11:58:52;6.63;;;2.00;;
30571;SDS011;17348;50.948;10.696;2023-03-12T12:02:09;7.10;;;2.80;;
30571;SDS011;17348;50.948;10.696;2023-03-12T12:05:24;7.13;;;2.20;;
30571;SDS011;17348;50.948;10.696;2023-03-12T12:08:42;13.17;;;4.43;;
30571;SDS011;17348;50.948;10.696;2023-03-12T12:12:05;6.90;;;2.87;;
30571;SDS011;17348;50.948;10.696;2023-03-12T12:15:17;6.93;;;2.97;;
30571;SDS011;17348;50.948;10.696;2023-03-12T12:18:30;5.73;;;2.70;;
30571;SDS011;17348;50.948;10.696;2023-03-12T12:21:45;14.20;;;3.43;;
30571;SDS011;17348;50.948;10.696;2023-03-12T12:32:10;5.93;;;2.60;;
30571;SDS011;17348;50.948;10.696;2023-03-12T12:35:20;4.47;;;2.20;;
30571;SDS011;17348;50.948;10.696;2023-03-12T12:38:30;9.50;;;2.47;;
30571;SDS011;17348;50.948;10.696;2023-03-12T12:41:37;6.50;;;2.33;;
30571;SDS011;17348;50.948;10.696;2023-03-12T12:44:47;6.07;;;2.63;;
30571;SDS011;17348;50.948;10.696;2023-03-12T12:47:52;4.50;;;2.40;;
30571;SDS011;17348;50.948;10.696;2023-03-12T12:50:57;3.20;;;1.60;;
30571;SDS011;17348;50.948;10.696;2023-03-12T12:54:03;5.20;;;1.90;;
30571;SDS011;17348;50.948;10.696;2023-03-12T12:57:13;3.55;;;1.42;;
30571;SDS011;17348;50.948;10.696;2023-03-12T13:00:22;2.90;;;1.70;;
30571;SDS011;17348;50.948;10.696;2023-03-12T13:03:36;6.33;;;1.27;;
30571;SDS011;17348;50.948;10.696;2023-03-12T13:06:55;3.73;;;1.87;;
30571;SDS011;17348;50.948;10.696;2023-03-12T13:10:03;4.40;;;1.23;;
30571;SDS011;17348;50.948;10.696;2023-03-12T13:13:12;4.13;;;1.70;;
30571;SDS011;17348;50.948;10.696;2023-03-12T13:16:28;2.80;;;1.57;;
30571;SDS011;17348;50.948;10.696;2023-03-12T13:19:37;3.57;;;1.57;;
30571;SDS011;17348;50.948;10.696;2023-03-12T13:22:49;2.03;;;1.27;;
30571;SDS011;17348;50.948;10.696;2023-03-12T13:26:05;4.27;;;1.97;;
30571;SDS011;17348;50.948;10.696;2023-03-12T13:29:19;4.20;;;1.80;;
30571;SDS011;17348;50.948;10.696;2023-03-12T13:33:02;3.73;;;1.77;;
30571;SDS011;17348;50.948;10.696;2023-03-12T13:36:18;4.87;;;1.60;;
30571;SDS011;17348;50.948;10.696;2023-03-12T13:39:27;2.80;;;1.80;;
30571;SDS011;17348;50.948;10.696;2023-03-12T13:42:37;4.77;;;1.40;;
30571;SDS011;17348;50.948;10.696;2023-03-12T13:45:53;3.17;;;1.47;;
30571;SDS011;17348;50.948;10.696;2023-03-12T13:49:03;1.70;;;1.30;;
30571;SDS011;17348;50.948;10.696;2023-03-12T13:52:18;2.27;;;1.30;;
30571;SDS011;17348;50.948;10.696;2023-03-12T13:55:24;3.60;;;1.73;;
30571;SDS011;17348;50.948;10.696;2023-03-12T13:58:28;4.90;;;2.03;;
30571;SDS011;17348;50.948;10.696;2023-03-12T14:01:34;2.23;;;1.20;;
30571;SDS011;17348;50.948;10.696;2023-03-12T14:04:39;2.57;;;1.20;;
30571;SDS011;17348;50.948;10.696;2023-03-12T14:11:19;11.73;;;4.30;;
30571;SDS011;17348;50.948;10.696;2023-03-12T14:14:33;15.23;;;5.37;;
30571;SDS011;17348;50.948;10.696;2023-03-12T14:17:50;9.73;;;4.13;;
30571;SDS011;17348;50.948;10.696;2023-03-12T14:21:00;27.13;;;10.40;;
30571;SDS011;17348;50.948;10.696;2023-03-12T14:24:07;2.90;;;1.47;;
30571;SDS011;17348;50.948;10.696;2023-03-12T14:27:23;1.63;;;1.27;;
30571;SDS011;17348;50.948;10.696;2023-03-12T14:30:30;2.07;;;1.50;;
30571;SDS011;17348;50.948;10.696;2023-03-12T14:33:45;3.27;;;1.43;;
30571;SDS011;17348;50.948;10.696;2023-03-12T14:36:57;2.93;;;1.80;;
30571;SDS011;17348;50.948;10.696;2023-03-12T14:40:02;2.58;;;1.73;;
30571;SDS011;17348;50.948;10.696;2023-03-12T14:43:19;2.10;;;1.43;;
30571;SDS011;17348;50.948;10.696;2023-03-12T14:46:23;1.67;;;0.97;;
30571;SDS011;17348;50.948;10.696;2023-03-12T14:49:25;2.07;;;1.30;;
30571;SDS011;17348;50.948;10.696;2023-03-12T14:52:30;2.47;;;1.13;;
30571;SDS011;17348;50.948;10.696;2023-03-12T14:55:34;2.30;;;1.33;;
30571;SDS011;17348;50.948;10.696;2023-03-12T14:58:41;2.47;;;1.37;;
30571;SDS011;17348;50.948;10.696;2023-03-12T15:01:45;2.57;;;1.40;;
30571;SDS011;17348;50.948;10.696;2023-03-12T15:04:49;3.63;;;2.07;;
30571;SDS011;17348;50.948;10.696;2023-03-12T15:07:57;2.27;;;1.43;;
30571;SDS011;17348;50.948;10.696;2023-03-12T15:11:03;3.10;;;1.97;;
30571;SDS011;17348;50.948;10.696;2023-03-12T15:14:07;4.47;;;2.27;;
30571;SDS011;17348;50.948;10.696;2023-03-12T15:17:14;5.77;;;2.60;;
30571;SDS011;17348;50.948;10.696;2023-03-12T15:20:18;4.40;;;2.00;;
30571;SDS011;17348;50.948;10.696;2023-03-12T15:23:24;3.93;;;1.90;;
30571;SDS011;17348;50.948;10.696;2023-03-12T15:26:28;3.90;;;1.67;;
30571;SDS011;17348;50.948;10.696;2023-03-12T15:29:38;2.13;;;1.50;;
30571;SDS011;17348;50.948;10.696;2023-03-12T15:32:42;4.10;;;2.10;;
30571;SDS011;17348;50.948;10.696;2023-03-12T15:36:06;4.43;;;2.10;;
30571;SDS011;17348;50.948;10.696;2023-03-12T15:39:29;6.30;;;2.60;;
30571;SDS011;17348;50.948;10.696;2023-03-12T15:42:35;4.60;;;2.67;;
30571;SDS011;17348;50.948;10.696;2023-03-12T15:45:39;4.73;;;2.87;;
30571;SDS011;17348;50.948;10.696;2023-03-12T15:48:44;4.07;;;2.37;;
30571;SDS011;17348;50.948;10.696;2023-03-12T15:51:56;5.77;;;3.10;;
30571;SDS011;17348;50.948;10.696;2023-03-12T15:55:03;4.70;;;2.88;;
30571;SDS011;17348;50.948;10.696;2023-03-12T15:58:22;7.93;;;3.50;;
30571;SDS011;17348;50.948;10.696;2023-03-12T16:01:26;7.73;;;3.20;;
30571;SDS011;17348;50.948;10.696;2023-03-12T16:04:28;4.77;;;3.03;;
30571;SDS011;17348;50.948;10.696;2023-03-12T16:07:31;6.57;;;2.93;;
30571;SDS011;17348;50.948;10.696;2023-03-12T16:10:35;6.77;;;2.80;;
30571;SDS011;17348;50.948;10.696;2023-03-12T16:13:38;4.63;;;2.93;;
30571;SDS011;17348;50.948;10.696;2023-03-12T16:16:41;7.33;;;3.10;;
30571;SDS011;17348;50.948;10.696;2023-03-12T16:19:44;5.70;;;2.67;;
30571;SDS011;17348;50.948;10.696;2023-03-12T16:22:48;5.13;;;3.17;;
30571;SDS011;17348;50.948;10.696;2023-03-12T16:25:52;7.97;;;2.90;;
30571;SDS011;17348;50.948;10.696;2023-03-12T16:28:56;5.00;;;3.00;;
30571;SDS011;17348;50.948;10.696;2023-03-12T16:31:59;5.63;;;3.00;;
30571;SDS011;17348;50.948;10.696;2023-03-12T16:35:04;7.80;;;2.57;;
30571;SDS011;17348;50.948;10.696;2023-03-12T16:38:12;9.70;;;3.97;;
30571;SDS011;17348;50.948;10.696;2023-03-12T16:41:17;5.33;;;3.40;;
30571;SDS011;17348;50.948;10.696;2023-03-12T16:44:20;8.50;;;3.87;;
30571;SDS011;17348;50.948;10.696;2023-03-12T16:47:23;6.43;;;3.47;;
30571;SDS011;17348;50.948;10.696;2023-03-12T16:50:26;8.77;;;3.97;;
30571;SDS011;17348;50.948;10.696;2023-03-12T16:53:29;6.17;;;3.67;;
30571;SDS011;17348;50.948;10.696;2023-03-12T16:56:32;7.83;;;4.10;;
30571;SDS011;17348;50.948;10.696;2023-03-12T16:59:36;13.17;;;5.00;;
30571;SDS011;17348;50.948;10.696;2023-03-12T17:02:39;9.87;;;4.60;;
30571;SDS011;17348;50.948;10.696;2023-03-12T17:05:41;10.33;;;4.77;;
30571;SDS011;17348;50.948;10.696;2023-03-12T17:08:44;6.43;;;3.70;;
30571;SDS011;17348;50.948;10.696;2023-03-12T17:11:48;7.57;;;4.37;;
30571;SDS011;17348;50.948;10.696;2023-03-12T17:14:53;10.57;;;3.73;;
30571;SDS011;17348;50.948;10.696;2023-03-12T17:17:56;12.07;;;4.23;;
30571;SDS011;17348;50.948;10.696;2023-03-12T17:21:02;10.80;;;5.03;;
30571;SDS011;17348;50.948;10.696;2023-03-12T17:24:05;10.47;;;5.03;;
30571;SDS011;17348;50.948;10.696;2023-03-12T17:27:09;11.57;;;4.27;;
30571;SDS011;17348;50.948;10.696;2023-03-12T17:30:12;8.47;;;4.67;;
30571;SDS011;17348;50.948;10.696;2023-03-12T17:33:15;10.23;;;4.83;;
30571;SDS011;17348;50.948;10.696;2023-03-12T17:36:19;8.60;;;4.57;;
30571;SDS011;17348;50.948;10.696;2023-03-12T17:39:21;9.87;;;5.30;;
30571;SDS011;17348;50.948;10.696;2023-03-12T17:42:25;8.73;;;4.70;;
30571;SDS011;17348;50.948;10.696;2023-03-12T17:45:27;9.43;;;4.67;;
30571;SDS011;17348;50.948;10.696;2023-03-12T17:48:29;13.40;;;4.60;;
30571;SDS011;17348;50.948;10.696;2023-03-12T17:51:32;10.40;;;4.90;;
30571;SDS011;17348;50.948;10.696;2023-03-12T17:54:35;11.50;;;4.13;;
30571;SDS011;17348;50.948;10.696;2023-03-12T17:57:38;4.33;;;3.37;;
30571;SDS011;17348;50.948;10.696;2023-03-12T18:00:44;9.60;;;4.30;;
30571;SDS011;17348;50.948;10.696;2023-03-12T18:03:46;9.80;;;4.57;;
30571;SDS011;17348;50.948;10.696;2023-03-12T18:06:50;9.63;;;4.10;;
30571;SDS011;17348;50.948;10.696;2023-03-12T18:09:53;7.17;;;3.33;;
30571;SDS011;17348;50.948;10.696;2023-03-12T18:12:57;7.70;;;3.80;;
30571;SDS011;17348;50.948;10.696;2023-03-12T18:15:59;5.90;;;3.67;;
30571;SDS011;17348;50.948;10.696;2023-03-12T18:19:02;10.47;;;3.33;;
30571;SDS011;17348;50.948;10.696;2023-03-12T18:22:04;5.87;;;3.43;;
30571;SDS011;17348;50.948;10.696;2023-03-12T18:25:08;6.87;;;3.67;;
30571;SDS011;17348;50.948;10.696;2023-03-12T18:28:12;5.77;;;3.60;;
30571;SDS011;17348;50.948;10.696;2023-03-12T18:31:16;11.10;;;4.83;;
30571;SDS011;17348;50.948;10.696;2023-03-12T18:34:18;15.03;;;4.83;;